Time;durP1;ratioP1;P1;durP2;ratioP2;P2;SDS_P1;SDS_P2;PMS_P1;PMS_P2;Temp;Humidity;BMP_temperature;BMP_pressure;BME280_temperature;BME280_humidity;BME280_pressure;Samples;Min_cycle;Max_cycle;Signal;HPM_P1;HPM_P2
2022/08/06 00:02:20;;;;;;;2.92;1.02;;;16.50;99.90;;;;;;4979145;28;20113;-66
2022/08/06 00:04:52;;;;;;;1.38;0.70;;;16.50;99.90;;;;;;4969983;28;20034;-66
2022/08/06 00:07:19;;;;;;;1.05;0.93;;;16.50;99.90;;;;;;4972117;28;20121;-69
2022/08/06 00:09:52;;;;;;;0.93;0.70;;;16.50;99.90;;;;;;4973499;28;20062;-69
2022/08/06 00:12:30;;;;;;;1.33;1.00;;;16.40;99.90;;;;;;4978851;28;20042;-67
2022/08/06 00:15:03;;;;;;;2.78;0.77;;;16.40;99.90;;;;;;4973464;28;20039;-67
2022/08/06 00:17:41;;;;;;;2.10;0.60;;;16.40;99.90;;;;;;4979155;28;20058;-68
2022/08/06 00:20:09;;;;;;;7.47;1.83;;;16.40;99.90;;;;;;4990648;28;20322;-72
2022/08/06 00:22:37;;;;;;;0.85;0.57;;;16.30;99.90;;;;;;4974374;28;20054;-66
2022/08/06 00:25:07;;;;;;;;;;;16.30;99.90;;;;;;4977085;28;20096;-70
2022/08/06 00:27:34;;;;;;;4.07;1.15;;;16.30;99.90;;;;;;4995145;28;19924;-70
2022/08/06 00:30:05;;;;;;;;;;;16.30;99.90;;;;;;4996763;28;20065;-70
2022/08/06 00:32:44;;;;;;;1.20;0.88;;;16.20;99.90;;;;;;4994480;28;19917;-67
2022/08/06 00:35:19;;;;;;;1.50;0.82;;;16.20;99.90;;;;;;4997321;28;20045;-67
2022/08/06 00:37:50;;;;;;;2.28;0.82;;;16.20;99.90;;;;;;4999213;28;20312;-68
2022/08/06 00:40:29;;;;;;;1.73;0.80;;;16.10;99.90;;;;;;4993961;28;20042;-70
2022/08/06 00:42:59;;;;;;;0.80;0.73;;;16.10;99.90;;;;;;4991078;28;20057;-67
2022/08/06 00:45:35;;;;;;;1.52;1.08;;;16.00;99.90;;;;;;4998193;28;20041;-67
2022/08/06 00:48:07;;;;;;;2.25;0.75;;;16.00;99.90;;;;;;4993994;28;20112;-68
2022/08/06 00:50:54;;;;;;;1.00;0.90;;;16.00;99.90;;;;;;4999380;28;20858;-69
2022/08/06 00:53:21;;;;;;;4.18;1.05;;;16.00;99.90;;;;;;4999657;28;20042;-66
2022/08/06 00:55:49;;;;;;;1.42;0.82;;;16.00;99.90;;;;;;5001757;28;20080;-73
2022/08/06 00:58:28;;;;;;;1.48;0.63;;;16.00;99.90;;;;;;4998600;28;20504;-66
2022/08/06 01:01:07;;;;;;;2.90;0.60;;;16.00;99.90;;;;;;5001940;28;20531;-66
2022/08/06 01:03:47;;;;;;;1.55;1.15;;;15.90;99.90;;;;;;4999111;28;20065;-68
2022/08/06 01:06:19;;;;;;;3.38;0.93;;;15.90;99.90;;;;;;4996187;28;20381;-68
2022/08/06 01:09:07;;;;;;;2.30;0.85;;;15.90;99.90;;;;;;5002228;28;20074;-67
2022/08/06 01:11:36;;;;;;;3.50;0.90;;;15.80;99.90;;;;;;4996321;28;20061;-68
2022/08/06 01:14:03;;;;;;;2.35;0.77;;;15.80;99.90;;;;;;5002473;28;20272;-67
2022/08/06 01:16:55;;;;;;;4.40;1.00;;;15.70;99.90;;;;;;4995165;28;20042;-68
2022/08/06 01:19:45;;;;;;;1.13;0.82;;;15.70;99.90;;;;;;4993894;28;20038;-70
2022/08/06 01:23:02;;;;;;;3.03;0.77;;;15.70;99.90;;;;;;4997286;28;20049;-70
2022/08/06 01:25:41;;;;;;;3.55;0.80;;;15.60;99.90;;;;;;5001297;28;20061;-67
2022/08/06 01:28:43;;;;;;;1.52;0.65;;;15.60;99.90;;;;;;4988990;28;20137;-69
2022/08/06 01:31:26;;;;;;;1.25;1.00;;;15.60;99.90;;;;;;4991631;28;20062;-67
2022/08/06 01:34:00;;;;;;;4.78;1.00;;;15.60;99.90;;;;;;4996786;28;20420;-67
2022/08/06 01:36:40;;;;;;;3.80;1.13;;;15.60;99.90;;;;;;4998664;28;20124;-68
2022/08/06 01:39:17;;;;;;;2.60;1.10;;;15.50;99.90;;;;;;5001066;28;20115;-71
2022/08/06 01:42:05;;;;;;;1.75;0.88;;;15.50;99.90;;;;;;4993046;28;20044;-66
2022/08/06 01:44:37;;;;;;;3.42;1.40;;;15.40;99.90;;;;;;5001577;28;20071;-69
2022/08/06 01:47:11;;;;;;;6.15;1.77;;;15.40;99.90;;;;;;4999361;28;20038;-71
2022/08/06 01:49:48;;;;;;;2.30;1.70;;;15.40;99.90;;;;;;4996601;28;20049;-70
2022/08/06 01:52:33;;;;;;;1.98;1.00;;;15.40;99.90;;;;;;4996646;28;20408;-66
2022/08/06 01:55:07;;;;;;;2.75;1.27;;;15.40;99.90;;;;;;4998609;28;20038;-67
2022/08/06 01:57:40;;;;;;;4.78;1.20;;;15.30;99.90;;;;;;4991188;28;20138;-72
2022/08/06 02:00:29;;;;;;;2.30;0.88;;;15.30;99.90;;;;;;4997897;28;20433;-69
2022/08/06 02:02:59;;;;;;;2.45;1.13;;;15.30;99.90;;;;;;5000190;28;20100;-69
2022/08/06 02:05:29;;;;;;;5.70;1.27;;;15.30;99.90;;;;;;4994616;28;20052;-68
2022/08/06 02:08:00;;;;;;;4.07;1.05;;;15.30;99.90;;;;;;4998642;28;20073;-66
2022/08/06 02:10:49;;;;;;;2.05;0.80;;;15.20;99.90;;;;;;5001164;28;20172;-66
2022/08/06 02:13:19;;;;;;;2.28;0.85;;;15.20;99.90;;;;;;4999640;28;20085;-68
2022/08/06 02:15:47;;;;;;;3.05;0.70;;;15.20;99.90;;;;;;5001571;28;20599;-70
2022/08/06 02:18:29;;;;;;;3.25;1.08;;;15.10;99.90;;;;;;4996734;28;20050;-69
2022/08/06 02:21:23;;;;;;;3.10;0.88;;;15.10;99.90;;;;;;5001135;28;20103;-71
2022/08/06 02:24:02;;;;;;;2.78;1.20;;;15.20;99.90;;;;;;4998869;28;20046;-68
2022/08/06 02:26:35;;;;;;;4.35;1.02;;;15.10;99.90;;;;;;5001793;28;20046;-68
2022/08/06 02:29:08;;;;;;;3.17;1.20;;;15.10;99.90;;;;;;4996198;28;20073;-70
2022/08/06 02:31:40;;;;;;;6.18;1.48;;;15.00;99.90;;;;;;4978968;28;20054;-69
2022/08/06 02:34:19;;;;;;;2.47;1.10;;;15.00;99.90;;;;;;4985573;28;20239;-67
2022/08/06 02:37:12;;;;;;;4.30;1.80;;;15.00;99.90;;;;;;4977498;28;20055;-66
2022/08/06 02:40:01;;;;;;;6.47;2.05;;;15.10;99.90;;;;;;4983101;28;20049;-70
2022/08/06 02:42:36;;;;;;;5.72;1.17;;;15.00;99.90;;;;;;4986841;28;20133;-69
2022/08/06 02:45:08;;;;;;;2.97;1.48;;;15.00;99.90;;;;;;4977418;28;20120;-66
2022/08/06 02:47:48;;;;;;;3.05;1.75;;;15.00;99.90;;;;;;5001870;28;20041;-66
2022/08/06 02:50:37;;;;;;;4.53;1.38;;;15.00;99.90;;;;;;4998948;28;20460;-67
2022/08/06 02:53:10;;;;;;;4.60;1.60;;;15.00;99.90;;;;;;4994434;28;20058;-69
2022/08/06 02:55:55;;;;;;;2.03;1.25;;;15.00;99.90;;;;;;4999000;28;20157;-69
2022/08/06 02:58:33;;;;;;;4.10;1.75;;;15.00;99.90;;;;;;4995834;28;20364;-67
2022/08/06 03:01:08;;;;;;;1.95;1.20;;;15.00;99.90;;;;;;5001942;28;20443;-73
2022/08/06 03:03:40;;;;;;;3.25;1.33;;;15.00;99.90;;;;;;5001071;28;20045;-66
2022/08/06 03:06:27;;;;;;;3.35;1.15;;;15.00;99.90;;;;;;4992347;28;20050;-69
2022/08/06 03:08:58;;;;;;;2.13;1.20;;;14.90;99.90;;;;;;4998050;28;20429;-74
2022/08/06 03:11:25;;;;;;;5.97;1.75;;;14.90;99.90;;;;;;4997525;28;20195;-68
2022/08/06 03:14:00;;;;;;;4.07;1.73;;;14.90;99.90;;;;;;4997558;28;20053;-69
2022/08/06 03:16:31;;;;;;;7.93;1.77;;;14.90;99.90;;;;;;4997201;28;20517;-72
2022/08/06 03:19:03;;;;;;;11.30;3.15;;;15.00;99.90;;;;;;4998887;28;20439;-67
2022/08/06 03:21:52;;;;;;;2.00;1.15;;;15.00;99.90;;;;;;4995902;28;20038;-69
2022/08/06 03:24:24;;;;;;;2.75;1.42;;;15.00;99.90;;;;;;4997355;28;20073;-68
2022/08/06 03:26:59;;;;;;;4.93;1.55;;;14.90;99.90;;;;;;4999036;28;20133;-68
2022/08/06 03:29:28;;;;;;;3.58;1.83;;;15.00;99.90;;;;;;4996141;28;20042;-68
2022/08/06 03:31:56;;;;;;;3.75;1.35;;;15.00;99.90;;;;;;4993422;28;20496;-69
2022/08/06 03:34:44;;;;;;;3.88;1.60;;;15.00;99.90;;;;;;5007979;28;20050;-68
2022/08/06 03:37:13;;;;;;;7.18;2.40;;;15.00;99.90;;;;;;4992066;28;20405;-67
2022/08/06 03:39:43;;;;;;;1.70;1.35;;;15.00;99.90;;;;;;4990574;28;20352;-68
2022/08/06 03:42:19;;;;;;;7.28;1.92;;;15.00;99.90;;;;;;4995413;28;20487;-66
2022/08/06 03:44:46;;;;;;;3.47;1.23;;;15.00;99.90;;;;;;5000187;28;20237;-69
2022/08/06 03:47:21;;;;;;;2.20;1.50;;;15.00;99.90;;;;;;4992227;28;20065;-69
2022/08/06 03:50:12;;;;;;;6.05;1.45;;;15.00;99.90;;;;;;4997424;28;20058;-72
2022/08/06 03:52:45;;;;;;;8.98;2.53;;;15.00;99.90;;;;;;4995178;28;20038;-67
2022/08/06 03:55:23;;;;;;;9.35;1.98;;;15.00;99.90;;;;;;4993935;28;20137;-70
2022/08/06 03:58:04;;;;;;;7.60;1.85;;;15.00;99.90;;;;;;4999979;28;20072;-69
2022/08/06 04:00:44;;;;;;;8.20;1.95;;;15.00;99.90;;;;;;5000039;28;20115;-66
2022/08/06 04:03:13;;;;;;;3.63;1.42;;;15.00;99.90;;;;;;4997594;28;20048;-69
2022/08/06 04:05:42;;;;;;;6.22;1.63;;;14.90;99.90;;;;;;4998702;28;20119;-70
2022/08/06 04:08:15;;;;;;;3.00;1.80;;;14.90;99.90;;;;;;4997530;28;20069;-66
2022/08/06 04:10:48;;;;;;;5.75;2.15;;;14.90;99.90;;;;;;5000282;28;20046;-67
2022/08/06 04:13:24;;;;;;;3.05;2.67;;;14.90;99.90;;;;;;4993701;28;20050;-67
2022/08/06 04:16:13;;;;;;;6.55;1.65;;;14.90;99.90;;;;;;4998363;28;20046;-69
2022/08/06 04:18:43;;;;;;;8.35;1.90;;;15.00;99.90;;;;;;4995812;28;20138;-66
2022/08/06 04:21:20;;;;;;;5.60;2.03;;;15.00;99.90;;;;;;4996224;28;20397;-74
2022/08/06 04:24:07;;;;;;;7.38;2.83;;;15.00;99.90;;;;;;4997903;28;20038;-70
2022/08/06 04:26:37;;;;;;;6.25;2.00;;;15.00;99.90;;;;;;4999958;28;20252;-68
2022/08/06 04:29:10;;;;;;;5.82;2.08;;;15.00;99.90;;;;;;5002229;28;20042;-70
2022/08/06 04:31:39;;;;;;;2.75;1.80;;;15.00;99.90;;;;;;4999434;28;20100;-70
2022/08/06 04:34:28;;;;;;;4.15;1.42;;;15.00;99.90;;;;;;4996259;28;20140;-67
2022/08/06 04:37:00;;;;;;;7.07;1.85;;;15.00;99.90;;;;;;5004265;28;20145;-73
2022/08/06 04:39:31;;;;;;;6.85;2.38;;;15.00;99.90;;;;;;4999339;28;20125;-72
2022/08/06 04:42:16;;;;;;;6.43;2.13;;;15.00;99.90;;;;;;4998291;28;20494;-67
2022/08/06 04:44:44;;;;;;;2.83;1.42;;;15.00;99.90;;;;;;5002636;28;20065;-70
2022/08/06 04:47:12;;;;;;;7.65;2.72;;;15.00;99.90;;;;;;4999462;28;20203;-68
2022/08/06 04:49:45;;;;;;;8.60;2.83;;;15.00;99.90;;;;;;4996202;28;20826;-73
2022/08/06 04:52:29;;;;;;;3.95;1.65;;;15.00;99.90;;;;;;4997165;28;20038;-67
2022/08/06 04:55:14;;;;;;;5.95;1.70;;;15.00;99.90;;;;;;5003320;28;20049;-73
2022/08/06 04:57:52;;;;;;;6.22;1.98;;;15.00;99.90;;;;;;4992297;28;20062;-69
2022/08/06 05:00:29;;;;;;;5.15;1.88;;;15.00;99.90;;;;;;4999917;28;20046;-71
2022/08/06 05:03:16;;;;;;;6.38;1.70;;;15.10;99.90;;;;;;4995310;28;20050;-70
2022/08/06 05:06:25;;;;;;;5.35;2.45;;;15.10;99.90;;;;;;4996607;28;20046;-66
2022/08/06 05:08:57;;;;;;;4.35;1.23;;;15.10;99.90;;;;;;4996645;28;20051;-68
2022/08/06 05:11:30;;;;;;;5.25;1.45;;;15.10;99.90;;;;;;4999847;28;20053;-66
2022/08/06 05:14:04;;;;;;;7.35;2.17;;;15.10;99.90;;;;;;4993426;28;20049;-66
2022/08/06 05:16:38;;;;;;;7.18;1.77;;;15.20;99.90;;;;;;4998595;28;20042;-66
2022/08/06 05:19:26;;;;;;;3.13;1.60;;;15.20;99.90;;;;;;4990859;28;20407;-67
2022/08/06 05:21:57;;;;;;;6.22;1.75;;;15.20;99.90;;;;;;4999156;28;20564;-66
2022/08/06 05:24:40;;;;;;;6.03;2.13;;;15.20;99.90;;;;;;4999972;28;20041;-67
2022/08/06 05:27:27;;;;;;;3.58;1.70;;;15.30;99.90;;;;;;4993875;28;20065;-69
2022/08/06 05:30:15;;;;;;;4.38;2.00;;;15.30;99.90;;;;;;4992792;28;20419;-70
2022/08/06 05:32:43;;;;;;;6.63;2.28;;;15.20;99.90;;;;;;4999940;28;20495;-69
2022/08/06 05:35:12;;;;;;;2.92;1.45;;;15.20;99.90;;;;;;4994797;28;20314;-70
2022/08/06 05:37:44;;;;;;;2.30;1.58;;;15.20;99.90;;;;;;5002692;28;20471;-68
2022/08/06 05:40:33;;;;;;;7.72;2.60;;;15.10;99.90;;;;;;4993801;28;20053;-70
2022/08/06 05:43:20;;;;;;;6.80;2.22;;;15.20;99.90;;;;;;4995976;28;20468;-67
2022/08/06 05:45:50;;;;;;;9.20;2.75;;;15.20;99.90;;;;;;4992876;28;20057;-72
2022/08/06 05:48:20;;;;;;;4.13;1.35;;;15.20;99.90;;;;;;4999878;28;20050;-73
2022/08/06 05:51:04;;;;;;;10.43;2.13;;;15.20;99.90;;;;;;4999291;28;20129;-66
2022/08/06 05:53:40;;;;;;;4.72;1.80;;;15.20;99.90;;;;;;4997615;28;20401;-70
2022/08/06 05:56:34;;;;;;;2.42;1.40;;;15.30;99.90;;;;;;5000714;28;20143;-73
2022/08/06 05:59:12;;;;;;;2.45;1.52;;;15.30;99.90;;;;;;4999593;28;20179;-73
2022/08/06 06:01:56;;;;;;;4.90;1.45;;;15.30;99.90;;;;;;4978739;28;20062;-67
2022/08/06 06:04:25;;;;;;;6.80;3.10;;;15.30;99.90;;;;;;4979682;28;20063;-68
2022/08/06 06:07:01;;;;;;;5.97;1.95;;;15.30;99.90;;;;;;4974739;28;20042;-69
2022/08/06 06:09:31;;;;;;;11.35;3.13;;;15.40;99.90;;;;;;4981569;28;20835;-66
2022/08/06 06:12:18;;;;;;;4.35;1.80;;;15.40;99.90;;;;;;4973977;28;20050;-67
2022/08/06 06:15:00;;;;;;;9.60;2.42;;;15.40;99.90;;;;;;4974727;28;20047;-67
2022/08/06 06:18:23;;;;;;;9.45;2.50;;;15.50;99.90;;;;;;4999654;28;20060;-68
2022/08/06 06:21:32;;;;;;;3.10;1.50;;;15.50;99.90;;;;;;4997479;28;20510;-69
2022/08/06 06:24:20;;;;;;;5.32;1.70;;;15.50;99.90;;;;;;4999188;28;20033;-66
2022/08/06 06:26:56;;;;;;;5.55;1.80;;;15.50;99.90;;;;;;4998815;28;20157;-72
2022/08/06 06:29:38;;;;;;;4.00;1.80;;;15.60;99.90;;;;;;4993163;28;20168;-68
2022/08/06 06:32:38;;;;;;;7.15;1.58;;;15.60;99.90;;;;;;4998291;28;20065;-67
2022/08/06 06:35:10;;;;;;;4.45;1.75;;;15.60;99.90;;;;;;4989037;28;20104;-72
2022/08/06 06:37:58;;;;;;;5.88;1.40;;;15.70;99.90;;;;;;4997468;28;20133;-67
2022/08/06 06:40:45;;;;;;;2.38;1.40;;;15.70;99.90;;;;;;5002190;28;20069;-72
2022/08/06 06:44:02;;;;;;;5.22;2.40;;;15.70;99.90;;;;;;4996309;28;20046;-67
2022/08/06 06:46:51;;;;;;;3.28;1.85;;;15.70;99.90;;;;;;4998980;28;20132;-67
2022/08/06 06:49:33;;;;;;;5.32;2.63;;;15.70;99.90;;;;;;4995325;28;20321;-66
2022/08/06 06:52:26;;;;;;;4.32;1.80;;;15.70;99.90;;;;;;4998547;28;20044;-66
2022/08/06 06:55:34;;;;;;;6.35;1.73;;;15.80;99.90;;;;;;4998760;28;20048;-68
2022/08/06 06:58:25;;;;;;;8.43;2.60;;;15.80;99.90;;;;;;4997423;28;20044;-71
2022/08/06 07:00:55;;;;;;;6.82;3.38;;;15.90;99.90;;;;;;4995391;28;20467;-67
2022/08/06 07:03:44;;;;;;;3.72;2.53;;;15.90;99.90;;;;;;4992675;28;20117;-69
2022/08/06 07:06:12;;;;;;;12.15;3.65;;;15.90;99.90;;;;;;4995351;28;20044;-69
2022/08/06 07:09:00;;;;;;;3.55;1.13;;;15.90;99.90;;;;;;4995074;28;20042;-66
2022/08/06 07:11:44;;;;;;;5.28;1.33;;;15.90;99.90;;;;;;4977841;28;20065;-71
2022/08/06 07:14:32;;;;;;;3.65;1.45;;;15.90;99.90;;;;;;4977489;28;21588;-68
2022/08/06 07:17:02;;;;;;;5.70;2.20;;;15.90;99.90;;;;;;4979133;28;20540;-71
2022/08/06 07:19:51;;;;;;;6.78;1.75;;;15.90;99.90;;;;;;4967066;28;20142;-66
2022/08/06 07:22:22;;;;;;;6.65;2.63;;;16.00;99.90;;;;;;4970196;28;20449;-67
2022/08/06 07:24:57;;;;;;;8.20;2.20;;;16.00;99.90;;;;;;4969828;28;20101;-66
2022/08/06 07:27:32;;;;;;;3.75;1.73;;;16.00;99.90;;;;;;4966474;28;20602;-71
2022/08/06 07:30:18;;;;;;;7.68;3.03;;;16.10;99.90;;;;;;4968812;28;20657;-68
2022/08/06 07:32:46;;;;;;;7.32;1.65;;;16.10;99.90;;;;;;4969353;28;20121;-67
2022/08/06 07:35:17;;;;;;;5.72;2.30;;;16.00;99.90;;;;;;4972290;28;20134;-67
2022/08/06 07:38:12;;;;;;;4.40;1.65;;;16.10;99.90;;;;;;4970907;28;20386;-70
2022/08/06 07:40:44;;;;;;;7.80;2.85;;;16.10;99.90;;;;;;4970064;28;20133;-68
2022/08/06 07:43:23;;;;;;;4.00;1.95;;;16.10;99.90;;;;;;4969165;28;20145;-68
2022/08/06 07:46:02;;;;;;;4.35;1.35;;;16.20;99.90;;;;;;4973055;28;20039;-70
2022/08/06 07:48:43;;;;;;;8.18;2.22;;;16.20;99.90;;;;;;4975443;28;20062;-67
2022/08/06 07:51:24;;;;;;;3.42;1.60;;;16.30;99.90;;;;;;4970327;28;20047;-68
2022/08/06 07:54:03;;;;;;;5.32;1.85;;;16.30;99.90;;;;;;4964382;28;20169;-71
2022/08/06 07:56:42;;;;;;;4.97;2.10;;;16.30;99.90;;;;;;4968910;28;20057;-67
2022/08/06 07:59:29;;;;;;;2.10;1.83;;;16.40;99.90;;;;;;4971708;28;20141;-69
2022/08/06 08:01:58;;;;;;;5.93;1.85;;;16.40;99.90;;;;;;4967281;28;20039;-69
2022/08/06 08:07:22;;;;;;;7.32;1.63;;;16.50;99.90;;;;;;4967694;28;20046;-66
2022/08/06 08:10:10;;;;;;;9.27;2.45;;;16.60;99.90;;;;;;4965561;28;20058;-70
2022/08/06 08:12:43;;;;;;;5.00;1.88;;;16.70;99.90;;;;;;4972189;28;20046;-73
2022/08/06 08:15:15;;;;;;;6.28;1.98;;;16.80;99.90;;;;;;4968581;28;20114;-72
2022/08/06 08:17:47;;;;;;;3.40;1.25;;;16.80;99.90;;;;;;4970785;28;20129;-69
2022/08/06 08:20:28;;;;;;;3.58;1.58;;;16.80;99.90;;;;;;4971000;28;20162;-68
2022/08/06 08:22:59;;;;;;;2.28;0.85;;;16.80;99.90;;;;;;4973689;28;20042;-66
2022/08/06 08:25:26;;;;;;;3.97;1.42;;;16.70;99.90;;;;;;4963611;28;20066;-68
2022/08/06 08:28:08;;;;;;;4.88;1.25;;;16.70;99.90;;;;;;4973878;28;20502;-68
2022/08/06 08:30:42;;;;;;;7.47;2.00;;;16.80;99.90;;;;;;4967826;28;20138;-69
2022/08/06 08:33:10;;;;;;;2.75;1.27;;;16.80;99.90;;;;;;4969179;28;20109;-69
2022/08/06 08:35:42;;;;;;;6.10;1.40;;;16.90;99.90;;;;;;4969538;28;20070;-73
2022/08/06 08:38:32;;;;;;;3.05;1.60;;;16.90;99.90;;;;;;4973319;28;20529;-72
2022/08/06 08:41:23;;;;;;;10.00;2.53;;;17.00;99.90;;;;;;4966000;28;20483;-69
2022/08/06 08:44:11;;;;;;;3.00;2.00;;;17.10;99.90;;;;;;4989474;28;20542;-68
2022/08/06 08:46:43;;;;;;;6.38;2.45;;;17.20;99.90;;;;;;5000299;28;20081;-69
2022/08/06 08:49:49;;;;;;;2.40;0.98;;;17.10;99.90;;;;;;4993635;28;20480;-67
2022/08/06 08:52:28;;;;;;;3.35;1.27;;;17.20;99.90;;;;;;4981936;28;20451;-72
2022/08/06 08:55:02;;;;;;;16.52;2.45;;;17.20;99.90;;;;;;4974808;28;20097;-74
2022/08/06 08:57:52;;;;;;;5.10;1.00;;;17.30;99.90;;;;;;4975141;28;20386;-68
2022/08/06 09:00:40;;;;;;;5.45;1.10;;;17.40;99.90;;;;;;4972519;28;20361;-71
2022/08/06 09:03:07;;;;;;;4.28;1.45;;;17.30;99.90;;;;;;4975642;28;20054;-68
2022/08/06 09:05:38;;;;;;;4.55;2.45;;;17.40;99.90;;;;;;4996364;28;20046;-67
2022/08/06 09:08:14;;;;;;;6.88;1.40;;;17.50;99.90;;;;;;4990959;28;20403;-70
2022/08/06 09:11:02;;;;;;;2.90;1.30;;;17.40;99.90;;;;;;5004482;28;20474;-72
2022/08/06 09:13:46;;;;;;;7.15;2.00;;;17.40;99.90;;;;;;4994609;28;20501;-68
2022/08/06 09:16:17;;;;;;;4.65;1.55;;;17.50;99.90;;;;;;5000497;28;20088;-74
2022/08/06 09:19:01;;;;;;;;;;;17.50;99.90;;;;;;5003071;28;20042;-72
2022/08/06 09:21:29;;;;;;;5.80;1.02;;;17.50;99.90;;;;;;4996199;28;19925;-66
2022/08/06 09:23:56;;;;;;;2.53;1.30;;;17.60;99.90;;;;;;5003143;28;20257;-69
2022/08/06 09:26:24;;;;;;;4.10;1.40;;;17.70;99.90;;;;;;5008728;28;20056;-67
2022/08/06 09:29:21;;;;;;;1.40;1.17;;;17.70;99.90;;;;;;4990117;28;20129;-75
2022/08/06 09:31:59;;;;;;;7.97;1.35;;;17.70;99.90;;;;;;4999456;28;20042;-72
2022/08/06 09:34:36;;;;;;;5.15;1.63;;;17.80;99.90;;;;;;5000385;28;20471;-75
2022/08/06 09:37:07;;;;;;;5.70;1.63;;;17.90;99.90;;;;;;5000055;28;20085;-71
2022/08/06 09:39:39;;;;;;;5.70;1.83;;;17.90;99.90;;;;;;4998658;28;20452;-71
2022/08/06 09:42:41;;;;;;;2.42;1.52;;;18.00;99.90;;;;;;4992191;28;20057;-70
2022/08/06 09:45:12;;;;;;;3.10;1.20;;;17.90;99.90;;;;;;4996546;28;20038;-67
2022/08/06 09:47:44;;;;;;;5.28;1.35;;;18.00;99.90;;;;;;4995559;28;20054;-68
2022/08/06 09:50:42;;;;;;;3.05;1.17;;;18.10;99.90;;;;;;4973751;28;20160;-70
2022/08/06 09:53:12;;;;;;;3.00;1.40;;;18.20;99.90;;;;;;4984899;28;20066;-68
2022/08/06 09:55:44;;;;;;;2.10;1.30;;;18.20;99.90;;;;;;4980372;28;20134;-67
2022/08/06 09:58:11;;;;;;;4.38;1.00;;;18.20;99.90;;;;;;4986717;28;20070;-71
2022/08/06 10:00:39;;;;;;;1.98;0.90;;;18.40;99.90;;;;;;4977302;28;20130;-69
2022/08/06 10:03:08;;;;;;;2.17;1.30;;;18.40;99.90;;;;;;4974604;28;20151;-67
2022/08/06 10:06:10;;;;;;;2.65;1.10;;;18.30;99.90;;;;;;4999767;28;20046;-71
2022/08/06 10:08:43;;;;;;;2.55;1.13;;;18.50;99.90;;;;;;4999939;28;20068;-72
2022/08/06 10:11:36;;;;;;;5.35;1.30;;;18.30;99.90;;;;;;4998133;28;20093;-69
2022/08/06 10:14:28;;;;;;;5.88;1.92;;;18.30;99.90;;;;;;5001544;28;20164;-68
2022/08/06 10:17:17;;;;;;;3.08;2.00;;;18.40;99.90;;;;;;5002106;28;20096;-71
2022/08/06 10:20:03;;;;;;;3.05;1.60;;;18.50;99.90;;;;;;4979672;28;20062;-67
2022/08/06 10:22:35;;;;;;;2.25;0.57;;;18.50;99.90;;;;;;4981651;28;20042;-68
2022/08/06 10:25:05;;;;;;;2.63;0.93;;;18.50;99.90;;;;;;4974637;28;20068;-67
2022/08/06 10:27:40;;;;;;;2.47;1.00;;;18.50;99.90;;;;;;4996904;28;20034;-70
2022/08/06 10:30:09;;;;;;;1.00;0.80;;;18.40;99.90;;;;;;5004878;28;20099;-68
2022/08/06 10:32:55;;;;;;;6.07;1.38;;;18.50;99.90;;;;;;4999386;28;20045;-71
2022/08/06 10:35:26;;;;;;;2.50;0.98;;;18.60;99.90;;;;;;4997546;28;20141;-68
2022/08/06 10:37:58;;;;;;;1.38;0.50;;;18.70;99.90;;;;;;5002729;28;20033;-70
2022/08/06 10:40:30;;;;;;;2.25;1.23;;;18.70;99.90;;;;;;5002696;28;20046;-70
2022/08/06 10:43:03;;;;;;;8.20;2.38;;;18.70;99.90;;;;;;4998154;28;20136;-68
2022/08/06 10:45:35;;;;;;;2.30;0.88;;;18.80;99.90;;;;;;4980103;28;20057;-67
2022/08/06 10:48:16;;;;;;;2.05;0.60;;;18.90;99.90;;;;;;4976735;28;20051;-67
2022/08/06 10:51:05;;;;;;;3.17;0.60;;;19.10;99.90;;;;;;4978700;28;20042;-67
2022/08/06 10:53:37;;;;;;;3.60;1.25;;;19.10;99.90;;;;;;4979664;28;20449;-69
2022/08/06 10:56:26;;;;;;;2.08;0.70;;;19.10;99.90;;;;;;4980251;28;20038;-69
2022/08/06 10:58:59;;;;;;;2.95;0.82;;;19.20;99.90;;;;;;4973493;28;20376;-70
2022/08/06 11:02:06;;;;;;;0.93;0.80;;;19.30;99.90;;;;;;4978825;28;20046;-70
2022/08/06 11:04:33;;;;;;;4.22;0.55;;;19.20;99.90;;;;;;4974392;28;20255;-69
2022/08/06 11:07:00;;;;;;;5.57;0.93;;;19.20;99.90;;;;;;4975083;28;20066;-70
2022/08/06 11:10:04;;;;;;;1.77;0.85;;;19.20;99.90;;;;;;4975920;28;20066;-69
2022/08/06 11:12:42;;;;;;;2.88;1.02;;;18.90;99.90;;;;;;4979576;28;20334;-68
2022/08/06 11:15:19;;;;;;;1.13;0.70;;;19.00;99.90;;;;;;4976537;28;20062;-70
2022/08/06 11:17:53;;;;;;;3.22;0.60;;;19.10;99.90;;;;;;4980872;28;20156;-69
2022/08/06 11:20:32;;;;;;;2.45;0.50;;;19.10;99.90;;;;;;4982503;28;20384;-71
2022/08/06 11:23:05;;;;;;;;;;;19.10;99.90;;;;;;4981089;28;20081;-69
2022/08/06 11:25:56;;;;;;;4.38;1.55;;;18.90;99.90;;;;;;4975800;28;19922;-68
2022/08/06 11:28:29;;;;;;;2.22;0.75;;;19.10;99.90;;;;;;4978801;28;20132;-74
2022/08/06 11:30:59;;;;;;;4.32;0.88;;;19.10;99.90;;;;;;4981375;28;20116;-68
2022/08/06 11:33:35;;;;;;;2.80;1.05;;;19.10;99.90;;;;;;4979843;28;22484;-71
2022/08/06 11:36:12;;;;;;;0.85;0.50;;;19.30;99.90;;;;;;4979492;28;20050;-67
2022/08/06 11:38:43;;;;;;;6.78;0.88;;;19.30;99.90;;;;;;4974264;28;20105;-74
2022/08/06 11:41:30;;;;;;;0.60;0.50;;;19.40;99.90;;;;;;4974115;28;20590;-70
2022/08/06 11:44:21;;;;;;;1.38;1.27;;;19.40;99.90;;;;;;4978388;28;20079;-72
2022/08/06 11:47:09;;;;;;;2.35;1.80;;;19.60;99.90;;;;;;4978912;28;20772;-69
2022/08/06 11:49:50;;;;;;;1.48;0.93;;;19.60;99.90;;;;;;4999164;28;20042;-70
2022/08/06 11:52:34;;;;;;;1.88;0.40;;;19.50;99.90;;;;;;4997770;28;20442;-68
2022/08/06 11:55:08;;;;;;;3.40;0.50;;;19.50;99.90;;;;;;4999590;28;20068;-67
2022/08/06 11:58:12;;;;;;;5.97;0.70;;;19.30;99.90;;;;;;4994100;28;20046;-68
2022/08/06 12:00:59;;;;;;;1.38;0.65;;;19.40;99.90;;;;;;4989068;28;20045;-70
2022/08/06 12:03:47;;;;;;;2.42;0.63;;;19.50;99.90;;;;;;4997171;28;20046;-67
2022/08/06 12:06:26;;;;;;;2.47;0.60;;;19.40;99.90;;;;;;4997742;28;20496;-73
2022/08/06 12:09:12;;;;;;;2.10;0.57;;;19.40;99.90;;;;;;4995913;28;20112;-67
2022/08/06 12:12:25;;;;;;;1.27;0.63;;;19.60;99.90;;;;;;4973435;28;20034;-71
2022/08/06 12:14:55;;;;;;;2.17;1.00;;;19.60;99.90;;;;;;4970346;28;20039;-68
2022/08/06 12:17:24;;;;;;;2.40;0.68;;;19.50;99.90;;;;;;4981151;28;20048;-67
2022/08/06 12:20:10;;;;;;;3.58;0.85;;;19.60;99.90;;;;;;4983555;28;20065;-73
2022/08/06 12:22:59;;;;;;;6.93;1.35;;;19.70;99.90;;;;;;4973589;28;20174;-68
2022/08/06 12:25:34;;;;;;;2.08;0.60;;;19.90;99.90;;;;;;4977625;28;20070;-67
2022/08/06 12:28:02;;;;;;;2.03;1.67;;;19.80;99.90;;;;;;4974670;28;20050;-68
2022/08/06 12:30:51;;;;;;;2.05;0.85;;;19.70;99.90;;;;;;4973840;28;20388;-71
2022/08/06 12:33:22;;;;;;;2.90;0.77;;;19.70;99.90;;;;;;4977219;28;20043;-67
2022/08/06 12:36:01;;;;;;;2.38;1.00;;;19.60;99.70;;;;;;4975076;28;20046;-68
2022/08/06 12:38:31;;;;;;;1.95;0.82;;;19.70;99.90;;;;;;4973816;28;20050;-70
2022/08/06 12:41:04;;;;;;;1.52;0.47;;;19.80;99.90;;;;;;4969655;28;20046;-74
2022/08/06 12:43:42;;;;;;;3.40;0.60;;;19.90;99.90;;;;;;4995801;28;20061;-67
2022/08/06 12:46:23;;;;;;;5.00;1.30;;;19.90;99.90;;;;;;4982181;28;20042;-67
2022/08/06 12:48:55;;;;;;;1.05;0.55;;;20.00;99.90;;;;;;4996005;28;20050;-70
2022/08/06 12:51:22;;;;;;;2.70;0.98;;;19.90;99.90;;;;;;4995562;28;20074;-67
2022/08/06 12:54:07;;;;;;;1.23;0.70;;;19.90;99.90;;;;;;4984205;28;20042;-68
2022/08/06 12:56:38;;;;;;;4.10;0.40;;;20.00;99.90;;;;;;4971836;28;20128;-67
2022/08/06 12:59:08;;;;;;;3.35;0.68;;;20.20;98.80;;;;;;4979818;28;20101;-67
2022/08/06 13:01:50;;;;;;;2.97;0.57;;;20.30;99.00;;;;;;4995962;28;20337;-67
2022/08/06 13:04:39;;;;;;;1.20;0.40;;;20.40;99.50;;;;;;5007265;28;20107;-69
2022/08/06 13:07:07;;;;;;;1.38;0.65;;;20.40;99.30;;;;;;5000561;28;20384;-69
2022/08/06 13:09:40;;;;;;;1.02;0.50;;;20.50;99.80;;;;;;4998842;28;20179;-69
2022/08/06 13:12:27;;;;;;;0.90;0.32;;;20.60;99.40;;;;;;4996020;28;20844;-71
2022/08/06 13:15:15;;;;;;;2.50;0.60;;;20.60;99.00;;;;;;5000122;28;20468;-68
2022/08/06 13:18:10;;;;;;;1.48;0.70;;;20.50;99.80;;;;;;5001567;28;20136;-70
2022/08/06 13:20:57;;;;;;;3.35;0.98;;;20.40;99.00;;;;;;5001844;28;20046;-74
2022/08/06 13:23:38;;;;;;;2.50;0.52;;;20.50;98.40;;;;;;4997397;28;20054;-67
2022/08/06 13:26:15;;;;;;;2.50;1.67;;;20.60;98.80;;;;;;4999690;28;20046;-72
2022/08/06 13:29:09;;;;;;;2.95;0.50;;;20.50;99.50;;;;;;4998098;28;20789;-67
2022/08/06 13:32:02;;;;;;;2.13;0.35;;;20.60;98.90;;;;;;4994852;28;20186;-71
2022/08/06 13:34:48;;;;;;;1.88;0.40;;;20.60;99.20;;;;;;4975130;28;20049;-67
2022/08/06 13:37:15;;;;;;;4.38;0.95;;;20.60;98.90;;;;;;4970334;28;20413;-67
2022/08/06 13:39:51;;;;;;;1.85;1.15;;;20.70;98.10;;;;;;4976942;28;20764;-68
2022/08/06 13:42:18;;;;;;;2.67;0.57;;;20.70;98.90;;;;;;4971921;28;20066;-68
2022/08/06 13:44:46;;;;;;;3.75;0.68;;;20.60;97.50;;;;;;4978184;28;20035;-67
2022/08/06 13:47:25;;;;;;;2.15;0.75;;;20.50;97.10;;;;;;4972500;28;20073;-76
2022/08/06 13:50:11;;;;;;;4.68;0.95;;;20.40;97.80;;;;;;4982567;28;20062;-73
2022/08/06 13:52:45;;;;;;;1.17;0.30;;;20.40;97.80;;;;;;4976192;28;20050;-67